Welcome to Northern Hawkes Bay. New Zealand.
PWS Header
      nz Flag



Hit Counter


W3C Valid W3C Valid logo


    Wairoa

Select any of the Stations below to visit their websites.










Historic Data from Weather Underground
Select the location of interest below. Wairoa is the default. Please have patience, this Data is slow to load in.
Northern Hawkes Bay Historical Data
Daily Summary for August 5, 2017 Units:  Metric    English   Both
« Previous Day
Next Day »
Daily Weekly Monthly Yearly Custom
  High: Low: Average:
Temperature: 16.2 °C 4.3 °C 8.2 °C
Dew Point: 9.7 °C 4.2 °C 6.4 °C
Humidity: 99% 62% 90%
Wind Speed: 11.1km/h 0.0km/h 4.7km/h
Wind Gust: 14.8km/h - -
Wind- - West
Pressure: 1027.7 hPa 1024.6 hPa -
Precipitation: 0.3 mm    
Historical Graphs
 
 
Tabular Data for August 5, 2017
Time Temperature Dew Point Pressure Wind Wind Speed Wind Gust Humidity Rainfall Rate (Hourly) solar
00:04 6.1 °C 5.8 °C 1025.3 hPa NW 2.6 km/h 3.5 km/h 98% 0.0 mm 0 W/m2
00:09 6.1 °C 5.8 °C 1024.9 hPa Calm   5.0 km/h 98% 0.0 mm 0 W/m2
00:14 6.1 °C 5.8 °C 1025.3 hPa NNW 1.1 km/h 5.0 km/h 98% 0.0 mm 0 W/m2
00:19 6.1 °C 5.8 °C 1025.3 hPa NNW 1.1 km/h 3.5 km/h 98% 0.0 mm 0 W/m2
00:25 6.2 °C 5.9 °C 1024.9 hPa NW 2.6 km/h 5.0 km/h 98% 0.0 mm 0 W/m2
00:30 6.2 °C 5.9 °C 1025.3 hPa NW 2.6 km/h 5.0 km/h 98% 0.0 mm 0 W/m2
00:35 6.1 °C 5.8 °C 1024.9 hPa NW 2.6 km/h 5.0 km/h 98% 0.0 mm 0 W/m2
00:40 6.1 °C 5.8 °C 1024.9 hPa NW 2.6 km/h 5.0 km/h 98% 0.0 mm 0 W/m2
00:45 6.0 °C 5.7 °C 1024.9 hPa NW 2.6 km/h 5.0 km/h 98% 0.0 mm 0 W/m2
00:50 5.9 °C 5.8 °C 1024.9 hPa NW 2.6 km/h 5.0 km/h 99% 0.0 mm 0 W/m2
00:55 5.8 °C 5.7 °C 1024.9 hPa NW 3.5 km/h 5.0 km/h 99% 0.0 mm 0 W/m2
01:00 5.8 °C 5.7 °C 1024.9 hPa NW 3.5 km/h 6.1 km/h 99% 0.0 mm 0 W/m2
01:05 5.8 °C 5.7 °C 1024.9 hPa NW 3.5 km/h 6.1 km/h 99% 0.0 mm 0 W/m2
01:21 5.7 °C 5.6 °C 1024.9 hPa NNW 3.5 km/h 5.0 km/h 99% 0.0 mm 0 W/m2
01:26 5.6 °C 5.4 °C 1024.9 hPa NNW 5.0 km/h 6.1 km/h 99% 0.0 mm 0 W/m2
01:31 5.6 °C 5.4 °C 1024.9 hPa NNW 2.6 km/h 6.1 km/h 99% 0.0 mm 0 W/m2
01:36 5.7 °C 5.6 °C 1024.9 hPa NNW 3.5 km/h 6.1 km/h 99% 0.0 mm 0 W/m2
01:41 5.7 °C 5.6 °C 1024.9 hPa NW 3.5 km/h 6.1 km/h 99% 0.0 mm 0 W/m2
01:46 5.7 °C 5.6 °C 1024.9 hPa NW 3.5 km/h 6.1 km/h 99% 0.0 mm 0 W/m2
01:51 5.7 °C 5.6 °C 1024.9 hPa NW 5.0 km/h 6.1 km/h 99% 0.0 mm 0 W/m2
01:56 5.7 °C 5.6 °C 1024.9 hPa NNW 3.5 km/h 7.2 km/h 99% 0.0 mm 0 W/m2
02:01 5.8 °C 5.7 °C 1024.9 hPa NNW 5.0 km/h 7.2 km/h 99% 0.0 mm 0 W/m2
02:06 5.8 °C 5.7 °C 1024.9 hPa NW 3.5 km/h 7.2 km/h 99% 0.0 mm 0 W/m2
02:11 5.9 °C 5.8 °C 1024.9 hPa NNW 5.0 km/h 7.2 km/h 99% 0.0 mm 0 W/m2
02:16 5.9 °C 5.8 °C 1024.9 hPa NNW 5.0 km/h 7.2 km/h 99% 0.0 mm 0 W/m2
02:21 5.9 °C 5.8 °C 1024.9 hPa NW 3.5 km/h 7.2 km/h 99% 0.0 mm 0 W/m2
02:26 6.0 °C 5.7 °C 1024.9 hPa NW 6.1 km/h 8.7 km/h 98% 0.0 mm 0 W/m2
02:31 6.0 °C 5.7 °C 1024.9 hPa NW 6.1 km/h 9.7 km/h 98% 0.0 mm 0 W/m2
02:36 6.0 °C 5.7 °C 1024.9 hPa NW 3.5 km/h 9.7 km/h 98% 0.0 mm 0 W/m2
02:41 6.1 °C 5.8 °C 1024.9 hPa NNE 5.0 km/h 9.7 km/h 98% 0.0 mm 0 W/m2
02:46 6.1 °C 5.8 °C 1024.9 hPa North 6.1 km/h 8.7 km/h 98% 0.0 mm 0 W/m2
02:51 6.2 °C 5.9 °C 1024.9 hPa NNW 7.2 km/h 9.7 km/h 98% 0.0 mm 0 W/m2
02:56 6.1 °C 5.8 °C 1024.9 hPa NW 7.2 km/h 9.7 km/h 98% 0.0 mm 0 W/m2
03:01 6.1 °C 5.8 °C 1024.9 hPa NW 5.0 km/h 9.7 km/h 98% 0.0 mm 0 W/m2
03:06 6.0 °C 5.7 °C 1024.9 hPa NW 5.0 km/h 8.7 km/h 98% 0.0 mm 0 W/m2
03:11 5.9 °C 5.8 °C 1024.9 hPa NW 5.0 km/h 7.2 km/h 99% 0.0 mm 0 W/m2
03:16 5.8 °C 5.7 °C 1024.9 hPa NNW 6.1 km/h 7.2 km/h 99% 0.0 mm 0 W/m2
03:21 5.8 °C 5.7 °C 1024.9 hPa NNW 5.0 km/h 7.2 km/h 99% 0.0 mm 0 W/m2
03:26 5.7 °C 5.6 °C 1024.9 hPa NNW 3.5 km/h 7.2 km/h 99% 0.0 mm 0 W/m2
03:31 5.6 °C 5.4 °C 1024.6 hPa NW 3.5 km/h 7.2 km/h 99% 0.0 mm 0 W/m2
03:36 5.4 °C 5.3 °C 1024.9 hPa NW 3.5 km/h 6.1 km/h 99% 0.0 mm 0 W/m2
03:41 5.4 °C 5.3 °C 1024.9 hPa NW 3.5 km/h 6.1 km/h 99% 0.0 mm 0 W/m2
03:47 5.3 °C 5.2 °C 1024.9 hPa NW 5.0 km/h 6.1 km/h 99% 0.0 mm 0 W/m2
03:52 5.3 °C 5.2 °C 1024.9 hPa NW 6.1 km/h 8.7 km/h 99% 0.0 mm 0 W/m2
03:57 5.4 °C 5.3 °C 1024.9 hPa NW 5.0 km/h 9.7 km/h 99% 0.0 mm 0 W/m2
04:02 5.3 °C 5.2 °C 1024.9 hPa NW 6.1 km/h 9.7 km/h 99% 0.0 mm 0 W/m2
04:07 5.3 °C 5.2 °C 1024.9 hPa NW 6.1 km/h 8.7 km/h 99% 0.0 mm 0 W/m2
04:12 5.3 °C 5.2 °C 1024.9 hPa NW 3.5 km/h 8.7 km/h 99% 0.0 mm 0 W/m2
04:17 5.3 °C 5.2 °C 1024.9 hPa NW 6.1 km/h 8.7 km/h 99% 0.0 mm 0 W/m2
04:22 5.3 °C 5.2 °C 1024.9 hPa NW 5.0 km/h 8.7 km/h 99% 0.0 mm 0 W/m2
04:27 5.3 °C 5.2 °C 1024.9 hPa NNW 5.0 km/h 8.7 km/h 99% 0.0 mm 0 W/m2
04:32 5.3 °C 5.2 °C 1024.9 hPa NNW 6.1 km/h 9.7 km/h 99% 0.0 mm 0 W/m2
04:37 5.4 °C 5.3 °C 1024.6 hPa NNW 6.1 km/h 11.1 km/h 99% 0.0 mm 0 W/m2
04:42 5.4 °C 5.3 °C 1024.9 hPa NNW 5.0 km/h 11.1 km/h 99% 0.0 mm 0 W/m2
04:47 5.3 °C 5.2 °C 1024.9 hPa NNW 5.0 km/h 11.1 km/h 99% 0.0 mm 0 W/m2
04:52 5.3 °C 5.2 °C 1024.9 hPa NNW 7.2 km/h 8.7 km/h 99% 0.0 mm 0 W/m2
04:57 5.4 °C 5.3 °C 1024.9 hPa North 6.1 km/h 9.7 km/h 99% 0.0 mm 0 W/m2
05:02 5.4 °C 5.3 °C 1024.9 hPa North 6.1 km/h 9.7 km/h 99% 0.0 mm 0 W/m2
05:07 5.3 °C 5.2 °C 1024.9 hPa North 5.0 km/h 9.7 km/h 99% 0.0 mm 0 W/m2
05:12 5.3 °C 5.2 °C 1024.9 hPa NNW 3.5 km/h 8.7 km/h 99% 0.0 mm 0 W/m2
05:17 5.3 °C 5.2 °C 1024.9 hPa NNW 5.0 km/h 8.7 km/h 99% 0.0 mm 0 W/m2
05:22 5.3 °C 5.2 °C 1024.9 hPa NNW 7.2 km/h 9.7 km/h 99% 0.0 mm 0 W/m2
05:27 5.3 °C 5.2 °C 1025.3 hPa NW 6.1 km/h 9.7 km/h 99% 0.0 mm 0 W/m2
05:32 5.2 °C 5.1 °C 1024.9 hPa NNW 5.0 km/h 9.7 km/h 99% 0.0 mm 0 W/m2
05:37 5.2 °C 5.1 °C 1025.3 hPa NNW 6.1 km/h 11.1 km/h 99% 0.0 mm 0 W/m2
05:42 5.1 °C 4.9 °C 1025.3 hPa NW 6.1 km/h 11.1 km/h 99% 0.0 mm 0 W/m2
05:47 5.0 °C 4.8 °C 1025.3 hPa NW 5.0 km/h 9.7 km/h 99% 0.0 mm 0 W/m2
05:52 4.9 °C 4.8 °C 1025.3 hPa NW 5.0 km/h 9.7 km/h 99% 0.0 mm 0 W/m2
05:57 4.9 °C 4.8 °C 1025.6 hPa NW 6.1 km/h 9.7 km/h 99% 0.0 mm 0 W/m2
06:03 4.8 °C 4.7 °C 1025.3 hPa NW 5.0 km/h 9.7 km/h 99% 0.0 mm 0 W/m2
06:08 4.7 °C 4.6 °C 1025.6 hPa NW 6.1 km/h 9.7 km/h 99% 0.0 mm 0 W/m2
06:13 4.6 °C 4.4 °C 1025.6 hPa NW 7.2 km/h 9.7 km/h 99% 0.0 mm 0 W/m2
06:18 4.6 °C 4.4 °C 1025.6 hPa NW 7.2 km/h 12.2 km/h 99% 0.0 mm 0 W/m2
06:23 4.7 °C 4.6 °C 1025.6 hPa NW 5.0 km/h 12.2 km/h 99% 0.0 mm 0 W/m2
06:28 4.7 °C 4.6 °C 1026.0 hPa NNW 6.1 km/h 12.2 km/h 99% 0.0 mm 0 W/m2
06:33 4.7 °C 4.6 °C 1025.6 hPa NNW 5.0 km/h 11.1 km/h 99% 0.0 mm 0 W/m2
06:38 4.6 °C 4.4 °C 1026.0 hPa NNW 6.1 km/h 11.1 km/h 99% 0.0 mm 0 W/m2
06:43 4.4 °C 4.3 °C 1026.0 hPa NW 6.1 km/h 9.7 km/h 99% 0.0 mm 0 W/m2
06:48 4.4 °C 4.3 °C 1026.0 hPa NW 7.2 km/h 9.7 km/h 99% 0.0 mm 0 W/m2
06:53 4.3 °C 4.2 °C 1026.0 hPa NW 5.0 km/h 9.7 km/h 99% 0.0 mm 0 W/m2
06:58 4.3 °C 4.2 °C 1026.0 hPa NW 6.1 km/h 11.1 km/h 99% 0.0 mm 0 W/m2
07:03 4.4 °C 4.3 °C 1026.0 hPa NW 5.0 km/h 11.1 km/h 99% 0.0 mm 0 W/m2
07:08 4.4 °C 4.3 °C 1026.0 hPa NW 5.0 km/h 8.7 km/h 99% 0.0 mm 0 W/m2
07:13 4.5 °C 4.3 °C 1026.0 hPa NW 6.1 km/h 8.7 km/h 99% 0.0 mm 0 W/m2
07:18 4.6 °C 4.4 °C 1026.3 hPa NNW 6.1 km/h 8.7 km/h 99% 0.0 mm 0 W/m2
07:23 4.7 °C 4.6 °C 1026.0 hPa NNW 6.1 km/h 9.7 km/h 99% 0.0 mm 2 W/m2
07:28 4.8 °C 4.7 °C 1026.3 hPa NNW 8.7 km/h 13.4 km/h 99% 0.0 mm 4 W/m2
07:33 4.8 °C 4.7 °C 1026.3 hPa NW 8.7 km/h 14.8 km/h 99% 0.0 mm 6 W/m2
07:38 4.7 °C 4.6 °C 1026.3 hPa NW 6.1 km/h 14.8 km/h 99% 0.0 mm 7 W/m2
07:43 4.7 °C 4.6 °C 1026.3 hPa NW 6.1 km/h 11.1 km/h 99% 0.0 mm 9 W/m2
07:48 4.7 °C 4.6 °C 1026.3 hPa NNW 6.1 km/h 9.7 km/h 99% 0.0 mm 11 W/m2
07:53 4.7 °C 4.6 °C 1026.3 hPa NNW 3.5 km/h 11.1 km/h 99% 0.0 mm 17 W/m2
07:58 4.7 °C 4.6 °C 1026.6 hPa NW 5.0 km/h 11.1 km/h 99% 0.0 mm 17 W/m2
08:03 4.7 °C 4.6 °C 1026.6 hPa NW 6.1 km/h 11.1 km/h 99% 0.0 mm 19 W/m2
08:08 4.8 °C 4.7 °C 1026.3 hPa NNW 7.2 km/h 9.7 km/h 99% 0.0 mm 23 W/m2
08:13 4.9 °C 4.8 °C 1026.6 hPa NNW 5.0 km/h 9.7 km/h 99% 0.0 mm 26 W/m2
08:18 4.9 °C 4.8 °C 1026.6 hPa NNW 5.0 km/h 9.7 km/h 99% 0.0 mm 29 W/m2
08:23 5.0 °C 4.8 °C 1026.6 hPa NNW 5.0 km/h 9.7 km/h 99% 0.0 mm 27 W/m2
08:28 5.0 °C 4.8 °C 1026.6 hPa NNW 3.5 km/h 9.7 km/h 99% 0.0 mm 29 W/m2
08:33 5.1 °C 4.9 °C 1027.0 hPa NNW 6.1 km/h 8.7 km/h 99% 0.0 mm 35 W/m2
08:38 5.2 °C 5.1 °C 1027.0 hPa NNW 5.0 km/h 9.7 km/h 99% 0.0 mm 40 W/m2
08:43 5.3 °C 5.2 °C 1027.0 hPa NNW 6.1 km/h 9.7 km/h 99% 0.0 mm 51 W/m2
08:48 5.5 °C 5.3 °C 1026.6 hPa NW 3.5 km/h 8.7 km/h 99% 0.0 mm 192 W/m2
08:54 6.0 °C 5.7 °C 1026.6 hPa NNW 5.0 km/h 9.7 km/h 98% 0.0 mm 217 W/m2
08:59 6.4 °C 6.1 °C 1026.6 hPa NNW 6.1 km/h 9.7 km/h 98% 0.0 mm 228 W/m2
09:04 6.6 °C 6.3 °C 1026.6 hPa NW 8.7 km/h 12.2 km/h 98% 0.0 mm 241 W/m2
09:09 6.7 °C 6.4 °C 1026.6 hPa NNW 8.7 km/h 12.2 km/h 98% 0.0 mm 254 W/m2
09:14 6.8 °C 6.5 °C 1027.0 hPa NNW 8.7 km/h 13.4 km/h 98% 0.3 mm 275 W/m2
09:19 7.2 °C 6.8 °C 1027.0 hPa NW 5.0 km/h 13.4 km/h 97% 0.3 mm 244 W/m2
09:24 6.9 °C 6.6 °C 1027.0 hPa NNW 8.7 km/h 12.2 km/h 98% 0.3 mm 275 W/m2
09:29 7.2 °C 6.8 °C 1027.0 hPa NW 11.1 km/h 14.8 km/h 97% 0.3 mm 325 W/m2
09:34 7.2 °C 6.8 °C 1027.0 hPa NNW 11.1 km/h 14.8 km/h 97% 0.3 mm 86 W/m2
09:39 6.8 °C 6.5 °C 1027.0 hPa NW 5.0 km/h 14.8 km/h 98% 0.3 mm 126 W/m2
09:44 7.1 °C 6.7 °C 1027.0 hPa NW 8.7 km/h 14.8 km/h 97% 0.3 mm 129 W/m2
09:50 7.9 °C 7.4 °C 1027.0 hPa NW 5.0 km/h 11.1 km/h 97% 0.3 mm 160 W/m2
09:56 8.9 °C 8.4 °C 1027.0 hPa NNW 8.7 km/h 12.2 km/h 97% 0.3 mm 189 W/m2
10:01 9.4 °C 8.7 °C 1027.0 hPa NNW 7.2 km/h 12.2 km/h 95% 0.3 mm 164 W/m2
10:06 9.0 °C 7.9 °C 1027.3 hPa NNW 6.1 km/h 12.2 km/h 93% 0.3 mm 163 W/m2
10:11 8.8 °C 7.6 °C 1027.3 hPa NNW 6.1 km/h 12.2 km/h 92% 0.3 mm 171 W/m2
10:16 9.2 °C 7.8 °C 1027.3 hPa NNW 3.5 km/h 9.7 km/h 91% 0.0 mm 172 W/m2
10:21 9.5 °C 8.1 °C 1027.3 hPa NNW 5.0 km/h 9.7 km/h 91% 0.0 mm 162 W/m2
10:26 9.7 °C 8.2 °C 1027.3 hPa NNW 2.6 km/h 9.7 km/h 90% 0.0 mm 137 W/m2
10:31 10.6 °C 8.9 °C 1027.3 hPa NNW 7.2 km/h 9.7 km/h 89% 0.0 mm 153 W/m2
10:36 10.9 °C 8.7 °C 1027.3 hPa NNW 5.0 km/h 9.7 km/h 86% 0.0 mm 180 W/m2
10:41 11.4 °C 8.8 °C 1027.3 hPa NNW 6.1 km/h 8.7 km/h 84% 0.0 mm 331 W/m2
10:46 11.9 °C 9.1 °C 1027.3 hPa NNW 6.1 km/h 12.2 km/h 83% 0.0 mm 441 W/m2
10:51 11.9 °C 8.7 °C 1027.7 hPa NNW 8.7 km/h 12.2 km/h 81% 0.0 mm 429 W/m2
10:56 11.9 °C 8.4 °C 1027.3 hPa NNW 5.0 km/h 12.2 km/h 79% 0.0 mm 319 W/m2
11:01 12.2 °C 8.5 °C 1027.7 hPa North 6.1 km/h 12.2 km/h 78% 0.0 mm 292 W/m2
11:06 11.9 °C 8.0 °C 1027.3 hPa North 6.1 km/h 12.2 km/h 77% 0.0 mm 177 W/m2
11:11 11.5 °C 7.8 °C 1027.3 hPa North 6.1 km/h 12.2 km/h 78% 0.0 mm 184 W/m2
11:16 11.5 °C 8.0 °C 1027.3 hPa North 6.1 km/h 11.1 km/h 79% 0.0 mm 136 W/m2
11:21 11.2 °C 7.7 °C 1027.3 hPa NNW 3.5 km/h 8.7 km/h 79% 0.0 mm 124 W/m2
11:26 11.5 °C 8.3 °C 1027.3 hPa NNW 5.0 km/h 9.7 km/h 81% 0.0 mm 233 W/m2
11:31 12.1 °C 8.8 °C 1027.3 hPa NNW 3.5 km/h 9.7 km/h 80% 0.0 mm 330 W/m2
11:36 13.1 °C 9.3 °C 1027.3 hPa NNW 3.5 km/h 8.7 km/h 78% 0.0 mm 356 W/m2
11:41 13.3 °C 8.9 °C 1027.3 hPa NNW 2.6 km/h 8.7 km/h 75% 0.0 mm 351 W/m2
11:46 13.4 °C 8.9 °C 1027.0 hPa NNW 5.0 km/h 11.1 km/h 74% 0.0 mm 335 W/m2
11:52 13.0 °C 8.5 °C 1027.3 hPa NNW 2.6 km/h 9.7 km/h 74% 0.0 mm 373 W/m2
11:55 13.5 °C 9.2 °C 1027.3 hPa NW 5.0 km/h 9.7 km/h 75% 0.0 mm 408 W/m2
12:00 14.2 °C 9.4 °C 1027.0 hPa West 3.5 km/h 8.7 km/h 73% 0.0 mm 414 W/m2
12:06 14.7 °C 9.1 °C 1027.0 hPa West 5.0 km/h 8.7 km/h 69% 0.0 mm 403 W/m2
12:11 15.2 °C 9.3 °C 1027.0 hPa SSW 1.1 km/h 8.7 km/h 68% 0.0 mm 424 W/m2
12:16 15.8 °C 9.7 °C 1027.0 hPa Calm   6.1 km/h 67% 0.0 mm 432 W/m2
12:21 16.2 °C 9.2 °C 1027.0 hPa South 8.7 km/h 9.7 km/h 63% 0.0 mm 428 W/m2
12:26 14.9 °C 8.4 °C 1027.0 hPa South 5.0 km/h 11.1 km/h 65% 0.0 mm 309 W/m2
12:32 14.1 °C 8.3 °C 1027.0 hPa South 9.7 km/h 12.2 km/h 68% 0.0 mm 286 W/m2
12:37 13.8 °C 8.6 °C 1026.6 hPa South 6.1 km/h 12.2 km/h 71% 0.0 mm 213 W/m2
12:42 13.2 °C 8.3 °C 1026.6 hPa SSW 6.1 km/h 12.2 km/h 72% 0.0 mm 113 W/m2
12:47 12.6 °C 7.9 °C 1026.6 hPa SW 6.1 km/h 9.7 km/h 73% 0.0 mm 325 W/m2
12:52 13.4 °C 9.1 °C 1026.6 hPa SSW 7.2 km/h 9.7 km/h 75% 0.0 mm 310 W/m2
12:57 14.0 °C 8.8 °C 1026.3 hPa SSW 9.7 km/h 11.1 km/h 71% 0.0 mm 283 W/m2
13:02 13.5 °C 8.2 °C 1026.3 hPa SSW 7.2 km/h 13.4 km/h 70% 0.0 mm 265 W/m2
13:07 13.3 °C 7.9 °C 1026.3 hPa SSW 8.7 km/h 14.8 km/h 70% 0.0 mm 249 W/m2
13:12 13.5 °C 8.2 °C 1026.3 hPa South 11.1 km/h 14.8 km/h 70% 0.0 mm 231 W/m2
13:17 13.3 °C 7.9 °C 1026.3 hPa South 7.2 km/h 13.4 km/h 70% 0.0 mm 205 W/m2
13:22 13.4 °C 7.8 °C 1026.3 hPa SSW 8.7 km/h 13.4 km/h 69% 0.0 mm 181 W/m2
13:27 13.5 °C 8.2 °C 1026.0 hPa South 8.7 km/h 12.2 km/h 70% 0.0 mm 149 W/m2
13:32 13.5 °C 7.9 °C 1026.0 hPa South 6.1 km/h 12.2 km/h 69% 0.0 mm 128 W/m2
13:37 13.8 °C 8.6 °C 1026.0 hPa South 6.1 km/h 12.2 km/h 71% 0.0 mm 114 W/m2
13:42 13.9 °C 8.3 °C 1026.0 hPa SSE 7.2 km/h 11.1 km/h 69% 0.0 mm 99 W/m2
13:47 13.5 °C 7.7 °C 1026.0 hPa South 11.1 km/h 12.2 km/h 68% 0.0 mm 73 W/m2
13:52 13.6 °C 8.0 °C 1026.0 hPa South 7.2 km/h 12.2 km/h 69% 0.0 mm 64 W/m2
13:57 13.5 °C 7.9 °C 1026.0 hPa South 9.7 km/h 12.2 km/h 69% 0.0 mm 62 W/m2
14:02 13.6 °C 8.2 °C 1026.0 hPa South 7.2 km/h 12.2 km/h 70% 0.0 mm 62 W/m2
14:07 13.8 °C 8.2 °C 1026.0 hPa South 8.7 km/h 13.4 km/h 69% 0.0 mm 61 W/m2
14:12 13.5 °C 8.2 °C 1026.0 hPa South 11.1 km/h 13.4 km/h 70% 0.0 mm 62 W/m2
14:17 13.4 °C 8.3 °C 1026.0 hPa South 8.7 km/h 13.4 km/h 71% 0.0 mm 63 W/m2
14:22 13.5 °C 8.3 °C 1026.0 hPa South 5.0 km/h 13.4 km/h 71% 0.0 mm 64 W/m2
14:27 14.0 °C 8.6 °C 1026.0 hPa SSW 6.1 km/h 13.4 km/h 70% 0.0 mm 65 W/m2
14:32 14.0 °C 8.4 °C 1026.0 hPa SSW 8.7 km/h 12.2 km/h 69% 0.0 mm 66 W/m2
14:37 13.8 °C 8.4 °C 1025.6 hPa SSW 8.7 km/h 12.2 km/h 70% 0.0 mm 66 W/m2
14:42 13.8 °C 8.6 °C 1026.0 hPa South 6.1 km/h 11.1 km/h 71% 0.0 mm 66 W/m2
14:47 13.8 °C 8.4 °C 1025.6 hPa SSW 5.0 km/h 11.1 km/h 70% 0.0 mm 72 W/m2
14:52 13.8 °C 8.4 °C 1025.6 hPa SSW 7.2 km/h 12.2 km/h 70% 0.0 mm 72 W/m2
14:57 13.8 °C 8.4 °C 1025.6 hPa South 8.7 km/h 12.2 km/h 70% 0.0 mm 89 W/m2
15:02 13.8 °C 8.4 °C 1025.6 hPa South 6.1 km/h 12.2 km/h 70% 0.0 mm 120 W/m2
15:07 13.8 °C 8.4 °C 1025.6 hPa South 6.1 km/h 12.2 km/h 70% 0.0 mm 124 W/m2
15:20 14.6 °C 8.6 °C 1025.6 hPa South 5.0 km/h 12.2 km/h 67% 0.0 mm 135 W/m2
15:39 14.4 °C 8.3 °C 1025.6 hPa South 6.1 km/h 9.7 km/h 67% 0.0 mm 107 W/m2
15:42 14.4 °C 8.3 °C 1025.3 hPa South 2.6 km/h 9.7 km/h 67% 0.0 mm 104 W/m2
15:47 15.0 °C 8.7 °C 1025.3 hPa SSE 1.1 km/h 9.7 km/h 66% 0.0 mm 97 W/m2
15:48 15.1 °C 8.6 °C 1025.6 hPa SSE 2.6 km/h 9.7 km/h 65% 0.0 mm 96 W/m2
15:50 15.1 °C 8.6 °C 1025.6 hPa SSE 3.5 km/h 8.7 km/h 65% 0.0 mm 94 W/m2
15:55 15.4 °C 8.6 °C 1025.6 hPa SSE 7.2 km/h 9.7 km/h 64% 0.0 mm 88 W/m2
16:02 15.5 °C 8.7 °C 1026.0 hPa SSE 3.5 km/h 9.7 km/h 64% 0.0 mm 76 W/m2
16:07 15.4 °C 8.6 °C 1025.6 hPa Calm   6.1 km/h 64% 0.0 mm 45 W/m2
16:12 15.3 °C 8.6 °C 1026.0 hPa SSE 1.1 km/h 6.1 km/h 64% 0.0 mm 55 W/m2
16:17 15.9 °C 9.1 °C 1026.0 hPa South 1.1 km/h 6.1 km/h 64% 0.0 mm 49 W/m2
16:22 16.2 °C 8.9 °C 1026.0 hPa SSE 2.6 km/h 6.1 km/h 62% 0.0 mm 45 W/m2
16:27 15.8 °C 8.8 °C 1026.0 hPa SE 2.6 km/h 5.0 km/h 63% 0.0 mm 42 W/m2
16:32 15.5 °C 8.5 °C 1026.0 hPa SE 3.5 km/h 6.1 km/h 63% 0.0 mm 43 W/m2
16:37 15.3 °C 8.6 °C 1026.0 hPa SE 2.6 km/h 6.1 km/h 64% 0.0 mm 41 W/m2
16:42 15.1 °C 8.3 °C 1026.0 hPa SSE 5.0 km/h 7.2 km/h 64% 0.0 mm 40 W/m2
16:47 14.7 °C 8.7 °C 1026.0 hPa SSE 3.5 km/h 7.2 km/h 67% 0.0 mm 36 W/m2
16:52 14.5 °C 8.4 °C 1025.6 hPa SE 3.5 km/h 7.2 km/h 67% 0.0 mm 23 W/m2
16:57 13.6 °C 8.0 °C 1026.0 hPa SE 1.1 km/h 5.0 km/h 69% 0.0 mm 16 W/m2
17:02 12.6 °C 7.7 °C 1026.0 hPa SE 1.1 km/h 5.0 km/h 72% 0.0 mm 19 W/m2
17:07 12.7 °C 8.0 °C 1026.0 hPa ESE 1.1 km/h 3.5 km/h 73% 0.0 mm 9 W/m2
17:12 12.0 °C 7.3 °C 1026.0 hPa Calm   3.5 km/h 73% 0.0 mm 4 W/m2
17:17 11.4 °C 6.9 °C 1026.0 hPa Calm   3.5 km/h 74% 0.0 mm 2 W/m2
17:22 10.9 °C 7.1 °C 1026.0 hPa Calm   2.6 km/h 77% 0.0 mm 0 W/m2
17:27 10.5 °C 6.8 °C 1026.3 hPa Calm   2.6 km/h 78% 0.0 mm 0 W/m2
17:32 10.2 °C 6.9 °C 1026.3 hPa Calm   1.1 km/h 80% 0.0 mm 0 W/m2
17:37 10.0 °C 6.9 °C 1026.3 hPa Calm   1.1 km/h 81% 0.0 mm 0 W/m2
17:54 9.1 °C 6.6 °C 1026.3 hPa Calm   1.1 km/h 84% 0.0 mm 0 W/m2
17:59 9.0 °C 6.4 °C 1026.6 hPa NNE 1.1 km/h 2.6 km/h 84% 0.0 mm 0 W/m2
18:04 8.8 °C 6.6 °C 1026.6 hPa North 2.6 km/h 5.0 km/h 86% 0.0 mm 0 W/m2
18:09 8.6 °C 6.7 °C 1026.6 hPa NNW 1.1 km/h 5.0 km/h 88% 0.0 mm 0 W/m2
18:14 8.5 °C 6.8 °C 1026.6 hPa Calm   5.0 km/h 89% 0.0 mm 0 W/m2
18:19 8.2 °C 6.5 °C 1026.6 hPa NNW 1.1 km/h 3.5 km/h 89% 0.0 mm 0 W/m2
18:24 8.2 °C 6.7 °C 1026.6 hPa NNW 2.6 km/h 5.0 km/h 90% 0.0 mm 0 W/m2
18:29 8.2 °C 6.8 °C 1026.3 hPa NNW 1.1 km/h 5.0 km/h 91% 0.0 mm 0 W/m2
18:34 8.1 °C 6.7 °C 1026.6 hPa NNW 1.1 km/h 5.0 km/h 91% 0.0 mm 0 W/m2
18:39 8.0 °C 6.8 °C 1026.3 hPa Calm   2.6 km/h 92% 0.0 mm 0 W/m2
18:44 7.9 °C 6.8 °C 1026.6 hPa NNE 2.6 km/h 3.5 km/h 93% 0.0 mm 0 W/m2
18:49 7.8 °C 6.7 °C 1026.6 hPa North 1.1 km/h 3.5 km/h 93% 0.0 mm 0 W/m2
18:54 7.6 °C 6.6 °C 1026.3 hPa NNW 3.5 km/h 5.0 km/h 93% 0.0 mm 0 W/m2
18:59 7.4 °C 6.3 °C 1026.6 hPa NNW 2.6 km/h 5.0 km/h 93% 0.0 mm 0 W/m2
19:04 7.2 °C 6.2 °C 1026.6 hPa NNW 3.5 km/h 5.0 km/h 93% 0.0 mm 0 W/m2
19:09 7.0 °C 5.9 °C 1026.6 hPa North 2.6 km/h 3.5 km/h 93% 0.0 mm 0 W/m2
19:14 7.0 °C 6.1 °C 1026.6 hPa North 3.5 km/h 5.0 km/h 94% 0.0 mm 0 W/m2
19:19 7.0 °C 6.1 °C 1026.6 hPa North 2.6 km/h 5.0 km/h 94% 0.0 mm 0 W/m2
19:24 6.9 °C 6.2 °C 1026.6 hPa North 2.6 km/h 5.0 km/h 95% 0.0 mm 0 W/m2
19:29 6.8 °C 6.1 °C 1026.6 hPa North 2.6 km/h 5.0 km/h 95% 0.0 mm 0 W/m2
19:34 6.8 °C 6.1 °C 1026.6 hPa North 3.5 km/h 5.0 km/h 95% 0.0 mm 0 W/m2
19:39 6.7 °C 6.1 °C 1026.6 hPa North 1.1 km/h 6.1 km/h 96% 0.0 mm 0 W/m2
19:44 6.6 °C 6.0 °C 1026.6 hPa NNE 1.1 km/h 6.1 km/h 96% 0.0 mm 0 W/m2
19:49 6.6 °C 6.0 °C 1026.6 hPa NNE 3.5 km/h 5.0 km/h 96% 0.0 mm 0 W/m2
19:54 6.5 °C 5.9 °C 1026.6 hPa North 1.1 km/h 5.0 km/h 96% 0.0 mm 0 W/m2
19:59 6.3 °C 5.7 °C 1026.6 hPa Calm   5.0 km/h 96% 0.0 mm 0 W/m2
20:04 6.3 °C 5.7 °C 1026.6 hPa NNW 2.6 km/h 5.0 km/h 96% 0.0 mm 0 W/m2
20:09 6.2 °C 5.6 °C 1026.6 hPa NNW 2.6 km/h 5.0 km/h 96% 0.0 mm 0 W/m2
20:14 6.1 °C 5.5 °C 1026.6 hPa NNW 1.1 km/h 5.0 km/h 96% 0.0 mm 0 W/m2
20:19 6.0 °C 5.4 °C 1026.3 hPa Calm   3.5 km/h 96% 0.0 mm 0 W/m2
20:24 5.9 °C 5.4 °C 1026.3 hPa NNE 2.6 km/h 3.5 km/h 97% 0.0 mm 0 W/m2
20:29 6.0 °C 5.6 °C 1026.6 hPa North 2.6 km/h 5.0 km/h 97% 0.0 mm 0 W/m2
20:34 6.0 °C 5.6 °C 1026.6 hPa NNW 2.6 km/h 5.0 km/h 97% 0.0 mm 0 W/m2
20:39 6.0 °C 5.6 °C 1026.6 hPa NNW 3.5 km/h 6.1 km/h 97% 0.0 mm 0 W/m2
20:44 6.0 °C 5.6 °C 1026.3 hPa NNW 3.5 km/h 6.1 km/h 97% 0.0 mm 0 W/m2
20:49 6.0 °C 5.6 °C 1026.6 hPa NNW 2.6 km/h 5.0 km/h 97% 0.0 mm 0 W/m2
20:54 5.8 °C 5.5 °C 1026.6 hPa NNW 2.6 km/h 5.0 km/h 98% 0.0 mm 0 W/m2
20:59 5.8 °C 5.5 °C 1026.6 hPa NNW 5.0 km/h 7.2 km/h 98% 0.0 mm 0 W/m2
21:04 5.8 °C 5.5 °C 1026.6 hPa NNW 3.5 km/h 7.2 km/h 98% 0.0 mm 0 W/m2
21:09 5.8 °C 5.5 °C 1026.3 hPa NNW 2.6 km/h 7.2 km/h 98% 0.0 mm 0 W/m2
21:14 5.8 °C 5.7 °C 1026.3 hPa NNW 2.6 km/h 6.1 km/h 99% 0.0 mm 0 W/m2
21:19 5.7 °C 5.6 °C 1026.3 hPa NNW 3.5 km/h 6.1 km/h 99% 0.0 mm 0 W/m2
21:24 5.7 °C 5.6 °C 1026.6 hPa NNW 3.5 km/h 6.1 km/h 99% 0.0 mm 0 W/m2
21:29 5.7 °C 5.6 °C 1026.3 hPa North 3.5 km/h 6.1 km/h 99% 0.0 mm 0 W/m2
21:46 5.7 °C 5.6 °C 1026.6 hPa NW 3.5 km/h 6.1 km/h 99% 0.0 mm 0 W/m2
21:51 5.6 °C 5.4 °C 1026.6 hPa NW 5.0 km/h 7.2 km/h 99% 0.0 mm 0 W/m2
21:56 5.7 °C 5.6 °C 1026.6 hPa NW 6.1 km/h 9.7 km/h 99% 0.0 mm 0 W/m2
22:01 5.7 °C 5.6 °C 1026.6 hPa NW 6.1 km/h 9.7 km/h 99% 0.0 mm 0 W/m2
22:06 5.6 °C 5.4 °C 1026.6 hPa NW 5.0 km/h 9.7 km/h 99% 0.0 mm 0 W/m2
22:11 5.5 °C 5.3 °C 1026.6 hPa NW 3.5 km/h 8.7 km/h 99% 0.0 mm 0 W/m2
22:16 5.5 °C 5.3 °C 1026.6 hPa NNW 5.0 km/h 8.7 km/h 99% 0.0 mm 0 W/m2
22:21 5.4 °C 5.3 °C 1026.6 hPa NNW 6.1 km/h 8.7 km/h 99% 0.0 mm 0 W/m2
22:26 5.4 °C 5.3 °C 1027.0 hPa NW 5.0 km/h 8.7 km/h 99% 0.0 mm 0 W/m2
22:31 5.4 °C 5.3 °C 1026.6 hPa NW 7.2 km/h 11.1 km/h 99% 0.0 mm 0 W/m2
22:36 5.4 °C 5.3 °C 1027.0 hPa NNW 5.0 km/h 11.1 km/h 99% 0.0 mm 0 W/m2
22:41 5.4 °C 5.3 °C 1027.0 hPa NNW 5.0 km/h 9.7 km/h 99% 0.0 mm 0 W/m2
22:46 5.3 °C 5.2 °C 1027.0 hPa NW 5.0 km/h 8.7 km/h 99% 0.0 mm 0 W/m2
22:51 5.2 °C 5.1 °C 1027.0 hPa NW 3.5 km/h 8.7 km/h 99% 0.0 mm 0 W/m2
22:56 5.0 °C 4.8 °C 1026.6 hPa NNW 3.5 km/h 8.7 km/h 99% 0.0 mm 0 W/m2
23:01 5.0 °C 4.8 °C 1027.0 hPa NNW 3.5 km/h 7.2 km/h 99% 0.0 mm 0 W/m2
23:06 4.8 °C 4.7 °C 1026.6 hPa NNW 5.0 km/h 7.2 km/h 99% 0.0 mm 0 W/m2
23:11 4.7 °C 4.6 °C 1027.0 hPa NW 3.5 km/h 7.2 km/h 99% 0.0 mm 0 W/m2
23:16 4.7 °C 4.6 °C 1027.0 hPa NNW 6.1 km/h 8.7 km/h 99% 0.0 mm 0 W/m2
23:21 4.8 °C 4.7 °C 1027.0 hPa NNW 3.5 km/h 8.7 km/h 99% 0.0 mm 0 W/m2
23:26 4.9 °C 4.8 °C 1027.0 hPa North 1.1 km/h 8.7 km/h 99% 0.0 mm 0 W/m2
23:31 5.0 °C 4.8 °C 1026.6 hPa North 5.0 km/h 9.7 km/h 99% 0.0 mm 0 W/m2
23:36 5.0 °C 4.8 °C 1027.0 hPa North 6.1 km/h 11.1 km/h 99% 0.0 mm 0 W/m2
23:42 5.1 °C 4.9 °C 1027.0 hPa North 7.2 km/h 12.2 km/h 99% 0.0 mm 0 W/m2
23:47 5.1 °C 4.9 °C 1027.0 hPa North 3.5 km/h 12.2 km/h 99% 0.0 mm 0 W/m2
23:52 5.1 °C 4.9 °C 1027.0 hPa North 5.0 km/h 9.7 km/h 99% 0.0 mm 0 W/m2
23:57 5.1 °C 4.9 °C 1027.0 hPa North 7.2 km/h 9.7 km/h 99% 0.0 mm 0 W/m2
Northern Hawkes Bay. New Zealand Historic Data
Compliments of Weather Underground - 2 mb